Puvirnituq, Canada
Current Conditions -  °F | °C
As of 7:34 PM on Saturday 20 Dec 2014 (Local Time) from CYPX Reporting Station
Light Snow Light Snow  
Wind Chill: -11°   Ceiling: 1600
Heat Index:   Visibility: 6mi
Dew Point:   Wind: 21mph
Humidity: 92%   Direction: 280°W
Pressure: 29.95"   Gusts: NA
Location:  60.03°N, 77.28°W
Report Text: CYPX 210034Z AUTO 28018KT 6SM -SN BKN016 OVC026 M13/M14 A2995 RMK SLP145
Loading
Personal Weather Stations






























Interactive Weather Map New forecast layout! Learn more

10-Day Weather Forecast

Advertisements
Track Severe Weather on mobile